createdAt,value
2018-05-03T00:00:20.145Z,3.40
2018-05-03T00:02:47.779Z,2.60
2018-05-03T00:05:15.367Z,3.10
2018-05-03T00:07:43.010Z,3.17
2018-05-03T00:10:11.374Z,3.50
2018-05-03T00:12:38.996Z,3.37
2018-05-03T00:15:06.647Z,2.60
2018-05-03T00:17:34.258Z,2.80
2018-05-03T00:20:02.615Z,3.30
2018-05-03T00:22:30.207Z,2.63
2018-05-03T00:24:57.810Z,3.43
2018-05-03T00:27:25.454Z,4.33
2018-05-03T00:29:53.104Z,2.87
2018-05-03T00:32:20.698Z,3.40
2018-05-03T00:34:48.324Z,3.17
2018-05-03T00:37:15.982Z,3.50
2018-05-03T00:39:43.595Z,3.37
2018-05-03T00:42:11.241Z,3.00
2018-05-03T00:44:38.834Z,3.53
2018-05-03T00:47:06.507Z,3.60
2018-05-03T00:49:34.088Z,3.90
2018-05-03T00:52:01.686Z,3.67
2018-05-03T00:54:41.106Z,3.50
2018-05-03T00:57:08.770Z,3.47
2018-05-03T00:59:36.415Z,5.57
2018-05-03T01:02:04.059Z,5.07
2018-05-03T01:04:31.700Z,4.90
2018-05-03T01:06:59.366Z,3.13
2018-05-03T01:09:26.977Z,3.87
2018-05-03T01:11:54.568Z,3.30
2018-05-03T01:14:23.027Z,3.97
2018-05-03T01:16:50.635Z,2.80
2018-05-03T01:19:18.283Z,3.70
2018-05-03T01:21:45.866Z,4.07
2018-05-03T01:24:14.356Z,3.20
2018-05-03T01:26:42.035Z,3.17
2018-05-03T01:29:09.642Z,3.97
2018-05-03T01:31:38.071Z,2.80
2018-05-03T01:34:05.665Z,2.63
2018-05-03T01:36:33.259Z,4.60
2018-05-03T01:39:00.866Z,2.63
2018-05-03T01:41:28.453Z,3.13
2018-05-03T01:43:56.041Z,2.30
2018-05-03T01:46:24.614Z,3.60
2018-05-03T01:48:52.274Z,2.90
2018-05-03T01:51:19.906Z,2.83
2018-05-03T01:53:47.552Z,3.17
2018-05-03T01:56:15.138Z,3.53
2018-05-03T01:58:43.550Z,2.37
2018-05-03T02:01:11.274Z,3.90
2018-05-03T02:03:38.863Z,5.17
2018-05-03T02:06:06.529Z,2.80
2018-05-03T02:08:34.134Z,3.17
2018-05-03T02:11:01.753Z,1.70
2018-05-03T02:13:29.399Z,2.27
2018-05-03T02:15:57.006Z,2.00
2018-05-03T02:18:24.610Z,3.60
2018-05-03T02:20:52.202Z,1.97
2018-05-03T02:23:19.798Z,4.77
2018-05-03T02:25:47.388Z,2.23
2018-05-03T02:28:15.002Z,3.70
2018-05-03T02:30:42.662Z,2.60
2018-05-03T02:33:10.258Z,3.07
2018-05-03T02:35:37.915Z,2.90
2018-05-03T02:38:05.549Z,2.93
2018-05-03T02:40:33.177Z,2.53
2018-05-03T02:43:00.762Z,2.60
2018-05-03T02:45:28.406Z,1.63
2018-05-03T02:47:56.009Z,1.57
2018-05-03T02:50:23.606Z,2.97
2018-05-03T02:52:51.209Z,2.73
2018-05-03T02:55:18.859Z,3.20
2018-05-03T02:58:13.903Z,2.23
2018-05-03T03:00:58.974Z,2.20
2018-05-03T03:03:44.178Z,1.53
2018-05-03T03:06:29.206Z,2.30
2018-05-03T03:09:25.207Z,1.73
2018-05-03T03:15:30.052Z,1.97
2018-05-03T03:18:10.298Z,1.90
2018-05-03T03:20:56.211Z,2.30
2018-05-03T03:23:41.282Z,2.43
2018-05-03T03:26:30.678Z,1.30
2018-05-03T03:29:24.921Z,3.70
2018-05-03T03:32:10.075Z,2.10
2018-05-03T03:34:37.670Z,2.47
2018-05-03T03:37:16.954Z,2.47
2018-05-03T03:40:02.734Z,1.70
2018-05-03T03:45:42.357Z,1.13
2018-05-03T03:48:10.013Z,1.50
2018-05-03T03:50:37.646Z,2.37
2018-05-03T03:53:05.229Z,2.87
2018-05-03T03:55:32.914Z,2.30
2018-05-03T03:58:00.506Z,1.93
2018-05-03T04:00:28.897Z,2.20
2018-05-03T04:02:56.494Z,1.90
2018-05-03T04:05:24.084Z,2.77
2018-05-03T04:07:51.682Z,2.27
2018-05-03T04:10:19.309Z,1.60
2018-05-03T04:12:47.687Z,2.83
2018-05-03T04:15:15.278Z,2.77
2018-05-03T04:17:54.582Z,1.43
2018-05-03T04:20:39.550Z,2.23
2018-05-03T04:23:31.947Z,1.33
2018-05-03T04:26:02.347Z,1.00
2018-05-03T04:28:29.942Z,1.47
2018-05-03T04:30:57.578Z,1.07
2018-05-03T04:33:25.174Z,2.63
2018-05-03T04:35:52.780Z,2.67
2018-05-03T04:38:20.402Z,3.00
2018-05-03T04:40:48.055Z,1.17
2018-05-03T04:43:15.648Z,2.03
2018-05-03T04:45:43.277Z,1.63
2018-05-03T04:48:10.864Z,2.20
2018-05-03T04:50:39.253Z,3.67
2018-05-03T04:53:07.662Z,2.60
2018-05-03T04:55:35.277Z,6.07
2018-05-03T04:58:03.631Z,3.77
2018-05-03T05:00:31.240Z,1.83
2018-05-03T05:02:58.830Z,2.20
2018-05-03T05:05:27.190Z,2.23
2018-05-03T05:07:54.790Z,0.70
2018-05-03T05:10:22.390Z,3.20
2018-05-03T05:12:49.986Z,2.30
2018-05-03T05:15:17.590Z,1.10
2018-05-03T05:17:45.941Z,3.00
2018-05-03T05:20:13.530Z,1.90
2018-05-03T05:22:41.935Z,1.53
2018-05-03T05:25:09.553Z,1.70
2018-05-03T05:27:37.930Z,0.60
2018-05-03T05:30:05.567Z,1.90
2018-05-03T05:32:33.167Z,2.40
2018-05-03T05:35:01.525Z,1.27
2018-05-03T05:37:29.256Z,1.47
2018-05-03T05:39:56.854Z,1.77
2018-05-03T05:42:24.479Z,0.93
2018-05-03T05:44:52.093Z,2.03
2018-05-03T05:47:20.648Z,2.03
2018-05-03T05:49:49.029Z,3.10
2018-05-03T05:52:16.657Z,1.90
2018-05-03T05:54:44.278Z,2.63
2018-05-03T05:57:12.639Z,2.23
2018-05-03T05:59:40.271Z,1.07
2018-05-03T06:02:08.628Z,1.67
2018-05-03T06:04:36.224Z,1.63
2018-05-03T06:07:03.860Z,2.57
2018-05-03T06:09:31.465Z,1.90
2018-05-03T06:11:59.830Z,2.77
2018-05-03T06:14:27.445Z,3.07
2018-05-03T06:16:55.075Z,1.53
2018-05-03T06:19:23.429Z,1.50
2018-05-03T06:21:51.053Z,1.53
2018-05-03T06:24:18.663Z,2.77
2018-05-03T06:26:47.023Z,2.27
2018-05-03T06:29:14.634Z,1.90
2018-05-03T06:31:42.230Z,1.40
2018-05-03T06:34:09.822Z,1.37
2018-05-03T06:36:37.422Z,3.33
2018-05-03T06:39:05.010Z,2.10
2018-05-03T06:41:32.601Z,1.47
2018-05-03T06:44:01.010Z,4.00
2018-05-03T06:46:28.613Z,3.23
2018-05-03T06:48:56.207Z,2.30
2018-05-03T06:51:23.839Z,3.63
2018-05-03T06:53:51.446Z,5.67
2018-05-03T06:56:19.039Z,4.00
2018-05-03T06:58:47.432Z,3.27
2018-05-03T07:01:15.042Z,1.30
2018-05-03T07:03:42.656Z,3.10
2018-05-03T07:06:10.294Z,1.70
2018-05-03T07:08:37.902Z,3.13
2018-05-03T07:11:05.498Z,2.63
2018-05-03T07:13:33.107Z,3.53
2018-05-03T07:16:00.706Z,2.53
2018-05-03T07:18:28.301Z,2.07
2018-05-03T07:20:55.906Z,2.97
2018-05-03T07:23:23.503Z,2.17
2018-05-03T07:25:51.104Z,2.00
2018-05-03T07:28:18.706Z,2.33
2018-05-03T07:30:46.302Z,1.57
2018-05-03T07:33:13.895Z,4.37
2018-05-03T07:35:41.514Z,1.67
2018-05-03T07:38:09.146Z,1.97
2018-05-03T07:40:36.743Z,3.27
2018-05-03T07:43:04.346Z,4.13
2018-05-03T07:45:32.709Z,3.10
2018-05-03T07:48:00.305Z,2.40
2018-05-03T07:50:27.909Z,2.43
2018-05-03T07:52:55.536Z,3.90
2018-05-03T07:55:23.145Z,2.13
2018-05-03T07:57:50.774Z,3.00
2018-05-03T08:00:18.390Z,6.90
2018-05-03T08:02:46.746Z,4.07
2018-05-03T08:05:14.377Z,2.93
2018-05-03T08:07:41.970Z,4.70
2018-05-03T08:10:09.565Z,3.33
2018-05-03T08:12:37.226Z,2.80
2018-05-03T08:15:04.799Z,7.10
2018-05-03T08:17:32.399Z,4.30
2018-05-03T08:20:00.031Z,4.47
2018-05-03T08:22:27.676Z,3.00
2018-05-03T08:24:55.278Z,2.97
2018-05-03T08:27:22.930Z,5.20
2018-05-03T08:29:50.533Z,4.07
2018-05-03T08:32:18.133Z,3.47
2018-05-03T08:34:45.757Z,3.47
2018-05-03T08:37:13.361Z,3.77
2018-05-03T08:39:40.953Z,4.40
2018-05-03T08:42:09.358Z,3.07
2018-05-03T08:44:36.960Z,3.27
2018-05-03T08:47:04.573Z,3.97
2018-05-03T08:49:32.984Z,3.53
2018-05-03T08:52:00.590Z,6.40
2018-05-03T08:54:28.186Z,5.33
2018-05-03T08:56:55.793Z,4.37
2018-05-03T08:59:23.414Z,5.93
2018-05-03T09:01:51.089Z,4.00
2018-05-03T09:04:18.698Z,4.10
2018-05-03T09:06:46.309Z,5.93
2018-05-03T09:09:13.955Z,8.13
2018-05-03T09:11:41.575Z,7.13
2018-05-03T09:14:09.204Z,7.33
2018-05-03T09:16:36.797Z,6.33
2018-05-03T09:19:04.411Z,7.30
2018-05-03T09:21:32.021Z,8.70
2018-05-03T09:23:59.617Z,4.90
2018-05-03T09:26:27.226Z,8.07
2018-05-03T09:28:54.825Z,8.03
2018-05-03T09:31:22.438Z,7.37
2018-05-03T09:33:50.054Z,8.87
2018-05-03T09:36:17.654Z,8.30
2018-05-03T09:38:46.225Z,8.80
2018-05-03T09:41:13.834Z,9.33
2018-05-03T09:43:41.440Z,6.73
2018-05-03T09:46:09.054Z,5.97
2018-05-03T09:48:36.669Z,7.83
2018-05-03T09:51:04.281Z,6.23
2018-05-03T09:53:31.906Z,7.37
2018-05-03T09:55:59.534Z,10.67
2018-05-03T09:58:27.138Z,12.27
2018-05-03T10:00:54.882Z,11.10
2018-05-03T10:03:22.486Z,9.27
2018-05-03T10:05:50.089Z,9.77
2018-05-03T10:08:17.682Z,9.83
2018-05-03T10:10:45.293Z,13.20
2018-05-03T10:13:12.962Z,13.33
2018-05-03T10:15:41.278Z,14.27
2018-05-03T10:18:08.892Z,14.43
2018-05-03T10:20:36.502Z,17.63
2018-05-03T10:23:04.122Z,20.87
2018-05-03T10:25:31.730Z,23.37
2018-05-03T10:27:59.329Z,16.63
2018-05-03T10:30:26.926Z,11.37
2018-05-03T10:32:55.297Z,12.37
2018-05-03T10:35:22.886Z,9.80
2018-05-03T10:37:50.507Z,9.63
2018-05-03T10:40:18.140Z,10.20
2018-05-03T10:42:45.746Z,7.10
2018-05-03T10:45:14.110Z,7.97
2018-05-03T10:47:41.715Z,12.47
2018-05-03T10:50:10.079Z,11.37
2018-05-03T10:52:37.679Z,13.93
2018-05-03T10:55:05.282Z,8.13
2018-05-03T10:57:33.509Z,8.57
2018-05-03T11:00:01.119Z,8.97
2018-05-03T11:02:28.775Z,9.53
2018-05-03T11:04:56.370Z,7.90
2018-05-03T11:07:24.729Z,8.13
2018-05-03T11:09:52.357Z,7.70
2018-05-03T11:12:19.950Z,7.03
2018-05-03T11:14:47.557Z,5.83
2018-05-03T11:17:15.193Z,6.57
2018-05-03T11:19:42.791Z,13.07
2018-05-03T11:22:10.386Z,9.10
2018-05-03T11:24:38.022Z,12.57
2018-05-03T11:27:05.639Z,12.53
2018-05-03T11:29:34.010Z,10.00
2018-05-03T11:32:02.392Z,7.87
2018-05-03T11:34:30.754Z,12.90
2018-05-03T11:36:58.420Z,9.53
2018-05-03T11:39:26.036Z,8.67
2018-05-03T11:41:53.633Z,8.77
2018-05-03T11:44:21.229Z,6.03
2018-05-03T11:46:48.838Z,6.17
2018-05-03T11:49:16.441Z,7.43
2018-05-03T11:51:44.050Z,7.90
2018-05-03T11:54:11.655Z,4.73
2018-05-03T11:56:40.015Z,8.63
2018-05-03T11:59:07.729Z,6.80
2018-05-03T12:01:35.310Z,6.90
2018-05-03T12:04:02.917Z,7.73
2018-05-03T12:06:30.510Z,5.63
2018-05-03T12:08:58.119Z,7.40
2018-05-03T12:11:25.721Z,8.17
2018-05-03T12:13:53.346Z,4.37
2018-05-03T12:16:20.959Z,5.57
2018-05-03T12:18:48.554Z,7.33
2018-05-03T12:21:16.179Z,10.53
2018-05-03T12:23:43.794Z,6.20
2018-05-03T12:26:11.390Z,8.17
2018-05-03T12:28:39.026Z,8.87
2018-05-03T12:31:06.648Z,6.77
2018-05-03T12:33:34.246Z,8.40
2018-05-03T12:36:02.690Z,7.00
2018-05-03T12:38:30.333Z,9.17
2018-05-03T12:40:57.953Z,4.20
2018-05-03T12:43:25.557Z,6.43
2018-05-03T12:45:53.930Z,7.53
2018-05-03T12:48:21.538Z,8.17
2018-05-03T12:50:49.905Z,6.67
2018-05-03T12:53:18.283Z,7.43
2018-05-03T12:55:45.886Z,6.53
2018-05-03T12:58:13.481Z,9.37
2018-05-03T13:00:41.107Z,6.10
2018-05-03T13:03:08.712Z,5.83
2018-05-03T13:05:36.315Z,6.27
2018-05-03T13:08:03.973Z,9.40
2018-05-03T13:10:31.597Z,7.57
2018-05-03T13:12:59.193Z,9.70
2018-05-03T13:15:26.820Z,5.47
2018-05-03T13:17:54.450Z,7.80
2018-05-03T13:20:22.055Z,5.20
2018-05-03T13:22:50.430Z,9.60
2018-05-03T13:25:18.026Z,8.27
2018-05-03T13:27:45.632Z,11.07
2018-05-03T13:30:13.234Z,7.77
2018-05-03T13:32:40.856Z,7.60
2018-05-03T13:35:08.457Z,5.20
2018-05-03T13:37:36.110Z,9.37
2018-05-03T13:40:03.714Z,7.97
2018-05-03T13:42:31.322Z,6.47
2018-05-03T13:44:58.930Z,8.33
2018-05-03T13:47:26.587Z,6.60
2018-05-03T13:49:54.221Z,7.53
2018-05-03T13:52:21.851Z,8.50
2018-05-03T13:54:50.219Z,7.33
2018-05-03T13:57:17.863Z,6.70
2018-05-03T13:59:45.483Z,8.83
2018-05-03T14:02:13.107Z,12.00
2018-05-03T14:04:41.483Z,8.10
2018-05-03T14:07:09.159Z,6.43
2018-05-03T14:09:36.746Z,6.77
2018-05-03T14:12:04.338Z,6.47
2018-05-03T14:14:31.989Z,7.90
2018-05-03T14:16:59.587Z,7.50
2018-05-03T14:19:27.967Z,6.50
2018-05-03T14:21:55.599Z,9.20
2018-05-03T14:24:23.233Z,7.40
2018-05-03T14:26:50.835Z,7.50
2018-05-03T14:29:18.442Z,7.70
2018-05-03T14:31:46.050Z,5.90
2018-05-03T14:34:13.646Z,6.50
2018-05-03T14:36:42.018Z,6.47
2018-05-03T14:39:09.658Z,8.47
2018-05-03T14:41:37.269Z,8.63
2018-05-03T14:44:04.893Z,9.83
2018-05-03T14:46:33.998Z,5.73
2018-05-03T14:49:01.590Z,9.23
2018-05-03T14:51:29.193Z,5.83
2018-05-03T14:53:56.834Z,8.67
2018-05-03T14:56:24.422Z,6.67
2018-05-03T14:58:52.055Z,9.17
2018-05-03T15:01:19.657Z,5.20
2018-05-03T15:03:48.023Z,6.30
2018-05-03T15:06:15.643Z,8.27
2018-05-03T15:08:43.240Z,8.77
2018-05-03T15:11:10.877Z,8.40
2018-05-03T15:13:38.486Z,5.77
2018-05-03T15:16:06.204Z,4.37
2018-05-03T15:18:33.722Z,5.97
2018-05-03T15:21:01.330Z,5.60
2018-05-03T15:23:28.926Z,7.70
2018-05-03T15:25:56.532Z,5.33
2018-05-03T15:28:24.165Z,7.03
2018-05-03T15:30:51.761Z,5.83
2018-05-03T15:33:19.358Z,5.70
2018-05-03T15:35:46.965Z,6.07
2018-05-03T15:38:14.571Z,6.43
2018-05-03T15:40:42.182Z,5.23
2018-05-03T15:43:09.798Z,8.10
2018-05-03T15:45:37.469Z,4.10
2018-05-03T15:48:05.844Z,4.33
2018-05-03T15:50:34.214Z,4.00
2018-05-03T15:53:02.579Z,3.23
2018-05-03T15:55:30.190Z,5.23
2018-05-03T15:57:57.822Z,5.10
2018-05-03T16:00:26.186Z,10.23
2018-05-03T16:02:54.550Z,7.23
2018-05-03T16:05:22.190Z,5.10
2018-05-03T16:07:49.803Z,6.50
2018-05-03T16:10:18.166Z,5.87
2018-05-03T16:12:46.542Z,2.77
2018-05-03T16:15:14.922Z,4.67
2018-05-03T16:17:42.582Z,5.47
2018-05-03T16:20:10.955Z,8.00
2018-05-03T16:22:38.554Z,4.60
2018-05-03T16:25:06.920Z,6.87
2018-05-03T16:27:34.522Z,6.37
2018-05-03T16:30:02.110Z,5.67
2018-05-03T16:32:29.710Z,6.27
2018-05-03T16:34:57.350Z,5.03
2018-05-03T16:37:25.717Z,4.33
2018-05-03T16:39:54.092Z,4.30
2018-05-03T16:42:21.697Z,6.70
2018-05-03T16:44:49.306Z,7.23
2018-05-03T16:47:16.907Z,5.27
2018-05-03T16:49:44.542Z,5.50
2018-05-03T16:52:12.897Z,4.77
2018-05-03T16:54:40.491Z,4.93
2018-05-03T16:57:08.150Z,5.30
2018-05-03T16:59:36.518Z,6.23
2018-05-03T17:02:04.178Z,4.53
2018-05-03T17:04:32.566Z,5.97
2018-05-03T17:07:00.206Z,5.60
2018-05-03T17:09:27.807Z,4.50
2018-05-03T17:11:55.421Z,5.90
2018-05-03T17:14:23.022Z,4.83
2018-05-03T17:16:50.618Z,6.07
2018-05-03T17:19:18.253Z,5.90
2018-05-03T17:21:45.861Z,6.53
2018-05-03T17:24:13.458Z,4.33
2018-05-03T17:26:41.071Z,5.73
2018-05-03T17:29:08.689Z,7.20
2018-05-03T17:31:36.285Z,7.83
2018-05-03T17:34:03.890Z,5.17
2018-05-03T17:36:31.494Z,6.50
2018-05-03T17:38:59.143Z,6.87
2018-05-03T17:41:26.733Z,7.27
2018-05-03T17:43:54.328Z,6.03
2018-05-03T17:46:22.695Z,4.00
2018-05-03T17:48:50.323Z,4.53
2018-05-03T17:51:18.032Z,5.30
2018-05-03T17:53:45.641Z,6.97
2018-05-03T17:56:13.345Z,5.17
2018-05-03T17:58:40.951Z,9.33
2018-05-03T18:01:08.574Z,3.60
2018-05-03T18:03:36.955Z,8.90
2018-05-03T18:06:04.639Z,9.87
2018-05-03T18:08:32.267Z,5.40
2018-05-03T18:11:00.636Z,7.07
2018-05-03T18:13:28.234Z,5.60
2018-05-03T18:15:55.834Z,10.57
2018-05-03T18:18:24.202Z,4.17
2018-05-03T18:20:51.815Z,6.63
2018-05-03T18:23:19.442Z,4.40
2018-05-03T18:25:47.050Z,8.23
2018-05-03T18:28:14.673Z,7.10
2018-05-03T18:30:42.291Z,6.07
2018-05-03T18:33:09.893Z,10.47
2018-05-03T18:35:37.482Z,6.53
2018-05-03T18:38:05.114Z,7.73
2018-05-03T18:40:32.721Z,8.70
2018-05-03T18:43:01.082Z,10.27
2018-05-03T18:45:28.714Z,6.10
2018-05-03T18:47:56.336Z,7.87
2018-05-03T18:50:23.979Z,12.57
2018-05-03T18:52:51.578Z,8.60
2018-05-03T18:55:19.238Z,9.37
2018-05-03T18:57:46.838Z,7.43
2018-05-03T19:00:14.433Z,5.93
2018-05-03T19:02:42.042Z,7.13
2018-05-03T19:05:10.406Z,9.07
2018-05-03T19:07:38.028Z,12.17
2018-05-03T19:10:05.670Z,7.13
2018-05-03T19:12:33.290Z,10.57
2018-05-03T19:15:00.886Z,10.67
2018-05-03T19:17:28.490Z,6.37
2018-05-03T19:19:56.113Z,6.30
2018-05-03T19:22:23.842Z,6.77
2018-05-03T19:24:51.477Z,10.13
2018-05-03T19:27:19.066Z,6.40
2018-05-03T19:29:46.662Z,7.30
2018-05-03T19:32:14.275Z,10.57
2018-05-03T19:34:41.866Z,7.10
2018-05-03T19:37:10.254Z,6.80
2018-05-03T19:39:37.862Z,6.13
2018-05-03T19:42:05.459Z,13.00
2018-05-03T19:44:33.989Z,10.70
2018-05-03T19:47:01.585Z,5.83
2018-05-03T19:49:29.198Z,6.17
2018-05-03T19:51:56.805Z,6.80
2018-05-03T19:54:24.473Z,8.33
2018-05-03T19:56:52.833Z,15.90
2018-05-03T19:59:20.458Z,9.13
2018-05-03T20:01:48.083Z,6.47
2018-05-03T20:04:15.683Z,10.67
2018-05-03T20:06:44.043Z,7.87
2018-05-03T20:09:11.650Z,8.37
2018-05-03T20:11:39.262Z,8.40
2018-05-03T20:14:06.860Z,8.80
2018-05-03T20:16:38.538Z,5.80
2018-05-03T20:19:06.138Z,8.57
2018-05-03T20:21:33.736Z,8.57
2018-05-03T20:24:01.334Z,4.53
2018-05-03T20:26:28.934Z,7.77
2018-05-03T20:28:56.546Z,6.43
2018-05-03T20:31:24.187Z,10.27
2018-05-03T20:33:51.783Z,6.87
2018-05-03T20:36:20.146Z,13.73
2018-05-03T20:38:48.541Z,9.73
2018-05-03T20:41:16.155Z,9.20
2018-05-03T20:43:43.746Z,6.17
2018-05-03T20:46:12.241Z,10.17
2018-05-03T20:48:39.769Z,9.07
2018-05-03T20:51:07.368Z,7.90
2018-05-03T20:53:34.982Z,11.10
2018-05-03T20:56:02.574Z,10.20
2018-05-03T20:58:30.941Z,11.70
2018-05-03T21:00:58.549Z,8.60
2018-05-03T21:03:26.158Z,11.27
2018-05-03T21:05:53.802Z,12.70
2018-05-03T21:08:21.406Z,10.20
2018-05-03T21:10:48.998Z,10.50
2018-05-03T21:13:16.626Z,10.20
2018-05-03T21:15:44.222Z,6.87
2018-05-03T21:18:11.818Z,10.93
2018-05-03T21:20:40.174Z,6.80
2018-05-03T21:23:07.789Z,9.97
2018-05-03T21:25:35.426Z,9.17
2018-05-03T21:28:04.140Z,9.00
2018-05-03T21:30:31.959Z,11.87
2018-05-03T21:33:01.342Z,7.30
2018-05-03T21:35:28.987Z,10.23
2018-05-03T21:37:56.801Z,8.13
2018-05-03T21:40:24.546Z,10.90
2018-05-03T21:42:52.418Z,7.80
2018-05-03T21:45:20.914Z,12.10
2018-05-03T21:47:48.534Z,9.80
2018-05-03T21:50:16.124Z,10.03
2018-05-03T21:52:43.739Z,7.63
2018-05-03T21:55:11.333Z,8.00
2018-05-03T21:57:38.931Z,6.27
2018-05-03T22:00:07.298Z,10.27
2018-05-03T22:02:35.677Z,7.23
2018-05-03T22:05:04.046Z,9.20
2018-05-03T22:07:31.656Z,7.47
2018-05-03T22:09:59.253Z,9.27
2018-05-03T22:12:26.883Z,7.47
2018-05-03T22:14:54.497Z,5.63
2018-05-03T22:17:22.147Z,5.70
2018-05-03T22:19:49.750Z,9.43
2018-05-03T22:22:17.400Z,10.17
2018-05-03T22:24:45.018Z,11.10
2018-05-03T22:27:12.651Z,9.77
2018-05-03T22:29:40.245Z,7.80
2018-05-03T22:32:08.614Z,7.17
2018-05-03T22:34:36.206Z,9.57
2018-05-03T22:37:03.816Z,10.13
2018-05-03T22:39:31.411Z,7.18
2018-05-03T22:41:59.778Z,7.27
2018-05-03T22:44:27.406Z,6.93
2018-05-03T22:46:55.017Z,8.20
2018-05-03T22:49:22.608Z,9.43
2018-05-03T22:51:50.247Z,8.97
2018-05-03T22:54:17.843Z,7.33
2018-05-03T22:56:45.488Z,7.67
2018-05-03T22:59:13.090Z,10.83
2018-05-03T23:01:40.681Z,5.13
2018-05-03T23:04:08.269Z,5.73
2018-05-03T23:06:35.936Z,8.47
2018-05-03T23:09:03.568Z,9.70
2018-05-03T23:11:31.186Z,10.73
2018-05-03T23:13:58.800Z,9.47
2018-05-03T23:16:26.390Z,10.77
2018-05-03T23:18:53.978Z,4.97
2018-05-03T23:21:21.605Z,9.87
2018-05-03T23:23:49.192Z,8.70
2018-05-03T23:26:17.572Z,9.17
2018-05-03T23:28:45.210Z,9.00
2018-05-03T23:31:13.576Z,10.10
2018-05-03T23:33:41.174Z,5.17
2018-05-03T23:36:08.782Z,5.20
2018-05-03T23:38:36.411Z,9.03
2018-05-03T23:41:04.821Z,8.83
2018-05-03T23:43:32.443Z,7.60
2018-05-03T23:46:00.061Z,6.20
2018-05-03T23:48:27.694Z,8.77
2018-05-03T23:50:55.326Z,12.37
2018-05-03T23:53:22.937Z,8.37
2018-05-03T23:55:50.535Z,8.67
2018-05-03T23:58:18.154Z,8.67
